createdAt,value
2018-07-28T00:00:40.839Z,21.72
2018-07-28T00:01:40.836Z,21.66
2018-07-28T00:02:40.816Z,21.69
2018-07-28T00:03:40.813Z,21.61
2018-07-28T00:04:40.788Z,21.61
2018-07-28T00:05:40.784Z,21.63
2018-07-28T00:06:40.775Z,21.60
2018-07-28T00:07:40.762Z,21.50
2018-07-28T00:08:40.756Z,21.38
2018-07-28T00:09:40.744Z,21.34
2018-07-28T00:10:40.733Z,21.30
2018-07-28T00:11:40.714Z,21.21
2018-07-28T00:12:40.710Z,21.08
2018-07-28T00:13:40.690Z,21.24
2018-07-28T00:14:40.680Z,21.19
2018-07-28T00:15:40.667Z,21.36
2018-07-28T00:16:40.661Z,21.44
2018-07-28T00:17:40.645Z,21.53
2018-07-28T00:18:40.642Z,21.42
2018-07-28T00:19:40.626Z,21.36
2018-07-28T00:20:40.620Z,21.29
2018-07-28T00:21:40.600Z,21.34
2018-07-28T00:22:40.591Z,21.16
2018-07-28T00:23:40.581Z,21.06
2018-07-28T00:24:40.565Z,21.05
2018-07-28T00:25:40.553Z,20.83
2018-07-28T00:26:40.556Z,20.69
2018-07-28T00:27:40.536Z,20.68
2018-07-28T00:28:40.524Z,20.56
2018-07-28T00:29:40.505Z,20.61
2018-07-28T00:30:40.501Z,20.50
2018-07-28T00:31:40.485Z,20.42
2018-07-28T00:32:40.488Z,20.35
2018-07-28T00:33:40.467Z,20.21
2018-07-28T00:34:40.454Z,20.03
2018-07-28T00:35:40.434Z,20.02
2018-07-28T00:36:40.435Z,20.02
2018-07-28T00:37:40.414Z,19.95
2018-07-28T00:38:40.438Z,19.88
2018-07-28T00:39:40.403Z,19.78
2018-07-28T00:40:40.386Z,19.72
2018-07-28T00:41:40.364Z,19.70
2018-07-28T00:42:40.377Z,19.54
2018-07-28T00:43:40.352Z,19.54
2018-07-28T00:44:40.349Z,19.54
2018-07-28T00:45:40.325Z,19.66
2018-07-28T00:46:40.307Z,19.66
2018-07-28T00:47:40.316Z,19.55
2018-07-28T00:48:40.281Z,19.48
2018-07-28T00:49:40.281Z,19.43
2018-07-28T00:50:40.281Z,19.42
2018-07-28T00:51:40.253Z,19.40
2018-07-28T00:52:40.253Z,19.42
2018-07-28T00:53:40.248Z,19.35
2018-07-28T00:54:40.209Z,19.31
2018-07-28T00:55:40.202Z,19.31
2018-07-28T00:56:40.186Z,19.15
2018-07-28T00:57:40.180Z,19.21
2018-07-28T00:58:40.160Z,19.08
2018-07-28T00:59:40.154Z,19.10
2018-07-28T01:00:40.147Z,19.14
2018-07-28T01:01:40.125Z,19.06
2018-07-28T01:02:40.117Z,19.14
2018-07-28T01:03:40.106Z,19.11
2018-07-28T01:04:40.097Z,18.95
2018-07-28T01:05:40.082Z,18.99
2018-07-28T01:06:40.065Z,18.98
2018-07-28T01:07:40.052Z,18.98
2018-07-28T01:08:40.043Z,18.99
2018-07-28T01:09:40.026Z,18.97
2018-07-28T01:10:40.017Z,18.97
2018-07-28T01:11:39.997Z,18.97
2018-07-28T01:12:40.006Z,18.94
2018-07-28T01:13:40.003Z,18.83
2018-07-28T01:14:39.962Z,18.90
2018-07-28T01:15:39.956Z,18.84
2018-07-28T01:16:39.948Z,18.74
2018-07-28T01:17:39.948Z,18.73
2018-07-28T01:18:39.917Z,18.67
2018-07-28T01:19:39.917Z,18.67
2018-07-28T01:20:39.893Z,18.67
2018-07-28T01:21:39.880Z,18.59
2018-07-28T01:22:39.873Z,18.55
2018-07-28T01:23:39.851Z,18.58
2018-07-28T01:24:39.848Z,18.50
2018-07-28T01:25:39.816Z,18.40
2018-07-28T01:26:39.816Z,18.36
2018-07-28T01:27:39.803Z,18.36
2018-07-28T01:28:39.793Z,18.29
2018-07-28T01:29:39.771Z,18.22
2018-07-28T01:30:39.785Z,18.25
2018-07-28T01:31:39.781Z,18.27
2018-07-28T01:32:39.739Z,18.25
2018-07-28T01:33:39.727Z,18.27
2018-07-28T01:34:39.711Z,18.19
2018-07-28T01:35:39.698Z,18.19
2018-07-28T01:36:39.689Z,18.09
2018-07-28T01:37:39.673Z,18.15
2018-07-28T01:38:39.676Z,18.09
2018-07-28T01:39:39.644Z,18.09
2018-07-28T01:40:39.635Z,17.99
2018-07-28T01:41:39.632Z,18.02
2018-07-28T01:42:39.612Z,18.07
2018-07-28T01:43:39.594Z,17.99
2018-07-28T01:44:39.584Z,18.00
2018-07-28T01:45:39.561Z,17.91
2018-07-28T01:46:39.561Z,17.87
2018-07-28T01:47:39.545Z,17.88
2018-07-28T01:48:39.532Z,17.89
2018-07-28T01:49:39.517Z,17.78
2018-07-28T01:50:39.504Z,17.91
2018-07-28T01:51:39.497Z,17.84
2018-07-28T01:52:39.474Z,17.89
2018-07-28T01:53:39.475Z,17.88
2018-07-28T01:54:39.448Z,17.84
2018-07-28T01:55:39.441Z,17.82
2018-07-28T01:56:39.435Z,17.94
2018-07-28T01:57:39.416Z,17.91
2018-07-28T01:58:39.394Z,17.89
2018-07-28T01:59:39.395Z,17.94
2018-07-28T02:00:39.372Z,17.85
2018-07-28T02:01:39.375Z,17.81
2018-07-28T02:02:39.352Z,17.82
2018-07-28T02:03:39.334Z,17.85
2018-07-28T02:04:39.317Z,17.81
2018-07-28T02:05:39.299Z,17.66
2018-07-28T02:06:39.295Z,17.66
2018-07-28T02:07:39.277Z,17.62
2018-07-28T02:08:39.269Z,17.66
2018-07-28T02:09:39.255Z,17.57
2018-07-28T02:10:39.246Z,17.57
2018-07-28T02:11:39.236Z,17.66
2018-07-28T02:12:39.213Z,17.69
2018-07-28T02:13:41.803Z,17.64
2018-07-28T02:14:39.194Z,17.59
2018-07-28T02:15:39.178Z,17.63
2018-07-28T02:16:39.149Z,17.63
2018-07-28T02:17:39.149Z,17.69
2018-07-28T02:18:39.137Z,17.59
2018-07-28T02:19:39.120Z,17.57
2018-07-28T02:20:39.118Z,17.57
2018-07-28T02:21:39.104Z,17.64
2018-07-28T02:22:39.084Z,17.62
2018-07-28T02:23:39.078Z,17.63
2018-07-28T02:24:39.053Z,17.63
2018-07-28T02:25:39.067Z,17.57
2018-07-28T02:26:39.024Z,17.67
2018-07-28T02:27:39.018Z,17.67
2018-07-28T02:28:39.007Z,17.54
2018-07-28T02:29:38.986Z,17.55
2018-07-28T02:30:38.995Z,17.53
2018-07-28T02:31:38.976Z,17.53
2018-07-28T02:32:38.951Z,17.43
2018-07-28T02:33:38.928Z,17.46
2018-07-28T02:34:38.916Z,17.33
2018-07-28T02:35:38.906Z,17.44
2018-07-28T02:36:38.892Z,17.32
2018-07-28T02:37:38.879Z,17.40
2018-07-28T02:38:38.866Z,17.32
2018-07-28T02:39:38.860Z,17.29
2018-07-28T02:40:38.834Z,17.29
2018-07-28T02:41:38.828Z,17.29
2018-07-28T02:42:38.820Z,17.15
2018-07-28T02:43:38.789Z,17.14
2018-07-28T02:44:38.780Z,17.10
2018-07-28T02:45:38.783Z,17.10
2018-07-28T02:46:38.761Z,17.17
2018-07-28T02:47:38.742Z,17.13
2018-07-28T02:48:38.739Z,17.15
2018-07-28T02:49:38.716Z,17.10
2018-07-28T02:50:38.705Z,17.10
2018-07-28T02:51:38.698Z,17.04
2018-07-28T02:52:38.671Z,17.13
2018-07-28T02:53:38.668Z,17.04
2018-07-28T02:54:38.646Z,16.99
2018-07-28T02:55:38.633Z,16.99
2018-07-28T02:56:38.623Z,17.04
2018-07-28T02:57:38.609Z,17.03
2018-07-28T02:58:38.589Z,17.03
2018-07-28T02:59:38.577Z,17.04
2018-07-28T03:00:38.568Z,16.99
2018-07-28T03:01:38.544Z,16.96
2018-07-28T03:02:38.538Z,17.07
2018-07-28T03:03:38.518Z,17.07
2018-07-28T03:04:38.511Z,16.96
2018-07-28T03:05:38.492Z,17.04
2018-07-28T03:06:38.483Z,16.99
2018-07-28T03:07:38.465Z,17.06
2018-07-28T03:08:38.450Z,17.06
2018-07-28T03:09:38.447Z,16.95
2018-07-28T03:10:38.426Z,16.93
2018-07-28T03:11:38.425Z,16.95
2018-07-28T03:12:38.397Z,16.89
2018-07-28T03:13:38.389Z,16.89
2018-07-28T03:14:38.371Z,16.89
2018-07-28T03:15:38.361Z,16.90
2018-07-28T03:16:38.346Z,16.89
2018-07-28T03:17:38.325Z,16.89
2018-07-28T03:18:38.316Z,16.86
2018-07-28T03:19:38.307Z,16.81
2018-07-28T03:20:38.300Z,16.86
2018-07-28T03:21:38.327Z,16.81
2018-07-28T03:22:38.265Z,16.85
2018-07-28T03:23:38.240Z,16.83
2018-07-28T03:24:38.225Z,16.83
2018-07-28T03:25:38.215Z,16.73
2018-07-28T03:26:38.197Z,16.71
2018-07-28T03:27:38.183Z,16.71
2018-07-28T03:28:38.177Z,16.71
2018-07-28T03:29:38.179Z,16.62
2018-07-28T03:30:38.164Z,16.65
2018-07-28T03:31:38.138Z,16.59
2018-07-28T03:32:38.116Z,16.52
2018-07-28T03:33:38.103Z,16.49
2018-07-28T03:34:38.084Z,16.50
2018-07-28T03:35:38.082Z,16.48
2018-07-28T03:36:38.059Z,16.45
2018-07-28T03:37:38.061Z,16.52
2018-07-28T03:38:38.059Z,16.50
2018-07-28T03:39:38.014Z,16.49
2018-07-28T03:40:38.008Z,16.49
2018-07-28T03:41:37.995Z,16.50
2018-07-28T03:42:37.978Z,16.48
2018-07-28T03:43:37.963Z,16.45
2018-07-28T03:44:37.957Z,16.48
2018-07-28T03:45:37.934Z,16.48
2018-07-28T03:46:37.921Z,16.44
2018-07-28T03:47:37.909Z,16.48
2018-07-28T03:48:37.893Z,16.52
2018-07-28T03:49:37.884Z,16.55
2018-07-28T03:50:37.864Z,16.44
2018-07-28T03:51:37.851Z,16.53
2018-07-28T03:52:37.845Z,16.52
2018-07-28T03:53:37.835Z,16.53
2018-07-28T03:54:37.808Z,16.52
2018-07-28T03:55:37.797Z,16.48
2018-07-28T03:56:37.831Z,16.44
2018-07-28T03:57:37.762Z,16.50
2018-07-28T03:58:37.749Z,16.44
2018-07-28T03:59:37.742Z,16.50
2018-07-28T04:00:37.732Z,16.53
2018-07-28T04:01:37.710Z,16.65
2018-07-28T04:02:37.700Z,16.67
2018-07-28T04:03:37.742Z,16.71
2018-07-28T04:04:37.695Z,16.68
2018-07-28T04:05:37.650Z,16.67
2018-07-28T04:06:37.650Z,16.77
2018-07-28T04:07:37.644Z,16.68
2018-07-28T04:08:37.611Z,16.68
2018-07-28T04:09:37.605Z,16.63
2018-07-28T04:10:38.319Z,16.55
2018-07-28T04:11:37.579Z,16.56
2018-07-28T04:12:37.554Z,16.55
2018-07-28T04:13:37.560Z,16.59
2018-07-28T04:14:37.548Z,16.60
2018-07-28T04:15:37.512Z,16.58
2018-07-28T04:16:37.506Z,16.62
2018-07-28T04:17:37.482Z,16.53
2018-07-28T04:18:37.465Z,16.59
2018-07-28T04:19:37.453Z,16.58
2018-07-28T04:20:37.439Z,16.62
2018-07-28T04:21:37.421Z,16.63
2018-07-28T04:22:37.411Z,16.62
2018-07-28T04:23:37.392Z,16.62
2018-07-28T04:24:37.382Z,16.62
2018-07-28T04:25:37.379Z,16.63
2018-07-28T04:26:37.364Z,16.60
2018-07-28T04:27:37.354Z,16.63
2018-07-28T04:28:37.391Z,16.65
2018-07-28T04:29:37.350Z,16.65
2018-07-28T04:30:37.301Z,16.73
2018-07-28T04:31:37.285Z,16.62
2018-07-28T04:32:37.265Z,16.75
2018-07-28T04:33:37.259Z,16.74
2018-07-28T04:34:37.240Z,16.75
2018-07-28T04:35:37.233Z,16.74
2018-07-28T04:36:37.242Z,16.90
2018-07-28T04:37:37.221Z,16.85
2018-07-28T04:38:37.186Z,16.83
2018-07-28T04:39:37.168Z,17.00
2018-07-28T04:40:37.159Z,17.10
2018-07-28T04:41:37.136Z,17.28
2018-07-28T04:42:37.132Z,17.47
2018-07-28T04:43:37.111Z,17.50
2018-07-28T04:44:37.098Z,17.53
2018-07-28T04:45:37.085Z,17.51
2018-07-28T04:46:37.065Z,17.63
2018-07-28T04:47:37.052Z,17.57
2018-07-28T04:48:37.043Z,17.57
2018-07-28T04:49:37.037Z,17.66
2018-07-28T04:50:37.014Z,17.59
2018-07-28T04:51:37.011Z,17.59
2018-07-28T04:52:36.992Z,17.71
2018-07-28T04:53:36.978Z,17.78
2018-07-28T04:54:36.959Z,17.85
2018-07-28T04:55:36.947Z,17.89
2018-07-28T04:56:36.927Z,17.92
2018-07-28T04:57:36.923Z,17.95
2018-07-28T04:58:36.928Z,17.94
2018-07-28T04:59:36.905Z,18.03
2018-07-28T05:00:36.878Z,18.21
2018-07-28T05:01:36.862Z,18.33
2018-07-28T05:02:36.847Z,18.37
2018-07-28T05:03:36.831Z,18.39
2018-07-28T05:04:36.819Z,18.47
2018-07-28T05:05:36.808Z,18.42
2018-07-28T05:06:36.798Z,18.52
2018-07-28T05:07:36.897Z,18.61
2018-07-28T05:08:36.769Z,18.74
2018-07-28T05:09:36.747Z,18.79
2018-07-28T05:10:36.740Z,18.91
2018-07-28T05:11:36.724Z,18.86
2018-07-28T05:12:36.722Z,18.97
2018-07-28T05:13:36.712Z,18.95
2018-07-28T05:14:36.688Z,19.06
2018-07-28T05:15:36.681Z,19.15
2018-07-28T05:16:36.661Z,19.18
2018-07-28T05:17:36.650Z,19.20
2018-07-28T05:18:36.640Z,19.33
2018-07-28T05:19:36.628Z,19.38
2018-07-28T05:20:36.615Z,19.46
2018-07-28T05:21:36.599Z,19.40
2018-07-28T05:22:36.602Z,19.42
2018-07-28T05:23:36.640Z,19.54
2018-07-28T05:24:36.564Z,19.60
2018-07-28T05:25:36.551Z,19.63
2018-07-28T05:26:36.535Z,19.72
2018-07-28T05:27:36.529Z,19.72
2018-07-28T05:28:36.516Z,19.80
2018-07-28T05:29:36.551Z,19.87
2018-07-28T05:30:36.495Z,19.91
2018-07-28T05:31:36.473Z,19.90
2018-07-28T05:32:36.466Z,20.05
2018-07-28T05:33:36.448Z,20.00
2018-07-28T05:34:36.438Z,20.13
2018-07-28T05:35:36.435Z,20.25
2018-07-28T05:36:36.416Z,20.30
2018-07-28T05:37:36.410Z,20.31
2018-07-28T05:38:36.387Z,20.41
2018-07-28T05:39:36.378Z,20.58
2018-07-28T05:40:36.362Z,20.58
2018-07-28T05:41:36.362Z,20.71
2018-07-28T05:42:36.455Z,20.81
2018-07-28T05:43:36.333Z,20.93
2018-07-28T05:44:36.323Z,21.27
2018-07-28T05:45:36.304Z,21.39
2018-07-28T05:46:36.301Z,21.57
2018-07-28T05:47:36.281Z,21.63
2018-07-28T05:48:36.269Z,21.75
2018-07-28T05:49:36.253Z,21.76
2018-07-28T05:50:36.243Z,21.98
2018-07-28T05:51:36.228Z,22.06
2018-07-28T05:52:36.221Z,22.17
2018-07-28T05:53:36.215Z,22.20
2018-07-28T05:54:36.214Z,22.19
2018-07-28T05:55:36.186Z,22.35
2018-07-28T05:56:36.179Z,22.52
2018-07-28T05:57:36.163Z,22.72
2018-07-28T05:58:36.154Z,22.96
2018-07-28T05:59:36.154Z,23.07
2018-07-28T06:00:36.141Z,23.08
2018-07-28T06:01:36.122Z,23.19
2018-07-28T06:02:36.117Z,23.35
2018-07-28T06:03:36.112Z,23.53
2018-07-28T06:04:36.096Z,23.76
2018-07-28T06:05:36.086Z,23.86
2018-07-28T06:06:36.080Z,23.85
2018-07-28T06:07:36.065Z,23.97
2018-07-28T06:08:36.065Z,24.16
2018-07-28T06:09:36.047Z,24.26
2018-07-28T06:10:36.042Z,24.37
2018-07-28T06:11:36.028Z,24.64
2018-07-28T06:12:36.026Z,24.88
2018-07-28T06:13:36.013Z,25.13
2018-07-28T06:14:36.003Z,25.31
2018-07-28T06:15:35.987Z,25.42
2018-07-28T06:16:35.980Z,25.52
2018-07-28T06:17:35.968Z,25.77
2018-07-28T06:18:35.961Z,25.97
2018-07-28T06:19:35.964Z,26.06
2018-07-28T06:20:35.945Z,25.99
2018-07-28T06:21:35.945Z,26.08
2018-07-28T06:22:35.940Z,26.20
2018-07-28T06:23:35.919Z,26.17
2018-07-28T06:24:35.913Z,26.24
2018-07-28T06:25:35.907Z,26.28
2018-07-28T06:26:35.900Z,26.47
2018-07-28T06:27:35.889Z,26.61
2018-07-28T06:28:35.883Z,26.61
2018-07-28T06:29:35.882Z,26.68
2018-07-28T06:30:35.864Z,26.62
2018-07-28T06:31:35.877Z,26.65
2018-07-28T06:32:35.863Z,26.76
2018-07-28T06:33:35.842Z,26.94
2018-07-28T06:34:35.838Z,26.99
2018-07-28T06:35:35.832Z,26.99
2018-07-28T06:36:35.828Z,26.95
2018-07-28T06:37:35.819Z,27.01
2018-07-28T06:38:35.809Z,27.01
2018-07-28T06:39:35.867Z,26.89
2018-07-28T06:40:35.794Z,26.87
2018-07-28T06:41:35.787Z,27.02
2018-07-28T06:42:35.777Z,27.06
2018-07-28T06:43:35.777Z,27.02
2018-07-28T06:44:35.771Z,27.06
2018-07-28T06:45:35.758Z,27.11
2018-07-28T06:46:35.748Z,27.11
2018-07-28T06:47:35.748Z,27.42
2018-07-28T06:48:35.739Z,27.50
2018-07-28T06:49:35.729Z,27.47
2018-07-28T06:50:35.729Z,27.54
2018-07-28T06:51:35.723Z,27.66
2018-07-28T06:52:35.718Z,27.71
2018-07-28T06:53:35.724Z,27.66
2018-07-28T06:54:35.710Z,27.74
2018-07-28T06:55:35.697Z,27.79
2018-07-28T06:56:35.685Z,27.94
2018-07-28T06:57:35.680Z,27.98
2018-07-28T06:58:35.694Z,28.01
2018-07-28T06:59:35.678Z,28.03
2018-07-28T07:00:35.663Z,27.99
2018-07-28T07:01:35.657Z,27.66
2018-07-28T07:02:35.663Z,27.58
2018-07-28T07:03:35.647Z,27.47
2018-07-28T07:04:35.653Z,27.54
2018-07-28T07:05:35.633Z,27.61
2018-07-28T07:06:35.634Z,27.47
2018-07-28T07:07:35.621Z,27.54
2018-07-28T07:08:35.615Z,27.36
2018-07-28T07:09:35.608Z,27.29
2018-07-28T07:10:35.599Z,27.09
2018-07-28T07:11:35.598Z,27.11
2018-07-28T07:12:35.596Z,27.16
2018-07-28T07:13:35.589Z,27.24
2018-07-28T07:14:35.586Z,27.26
2018-07-28T07:15:35.573Z,27.31
2018-07-28T07:16:35.564Z,27.32
2018-07-28T07:17:35.561Z,27.20
2018-07-28T07:18:35.557Z,27.10
2018-07-28T07:19:35.544Z,26.91
2018-07-28T07:20:35.549Z,26.92
2018-07-28T07:21:35.538Z,26.74
2018-07-28T07:22:35.528Z,26.54
2018-07-28T07:23:35.521Z,26.55
2018-07-28T07:24:35.522Z,26.52
2018-07-28T07:25:35.506Z,26.61
2018-07-28T07:26:35.519Z,26.61
2018-07-28T07:27:35.496Z,26.46
2018-07-28T07:28:35.484Z,26.49
2018-07-28T07:29:35.478Z,26.61
2018-07-28T07:30:35.473Z,26.58
2018-07-28T07:31:35.471Z,26.79
2018-07-28T07:32:35.460Z,27.11
2018-07-28T07:33:35.452Z,27.43
2018-07-28T07:34:35.443Z,27.82
2018-07-28T07:35:35.448Z,27.98
2018-07-28T07:36:35.436Z,28.25
2018-07-28T07:37:35.431Z,28.32
2018-07-28T07:38:35.416Z,28.38
2018-07-28T07:39:35.414Z,28.69
2018-07-28T07:40:35.428Z,28.80
2018-07-28T07:41:35.415Z,29.22
2018-07-28T07:42:35.394Z,29.49
2018-07-28T07:43:35.392Z,29.63
2018-07-28T07:44:35.384Z,29.43
2018-07-28T07:45:35.378Z,29.63
2018-07-28T07:46:35.369Z,29.93
2018-07-28T07:47:35.427Z,30.19
2018-07-28T07:48:35.363Z,29.94
2018-07-28T07:49:35.363Z,29.59
2018-07-28T07:50:35.347Z,29.53
2018-07-28T07:51:35.347Z,29.63
2018-07-28T07:52:35.333Z,30.05
2018-07-28T07:53:35.333Z,30.26
2018-07-28T07:54:35.324Z,30.46
2018-07-28T07:55:35.337Z,30.40
2018-07-28T07:56:35.340Z,30.34
2018-07-28T07:57:35.311Z,30.19
2018-07-28T07:58:35.305Z,30.26
2018-07-28T07:59:35.305Z,30.21
2018-07-28T08:00:35.305Z,30.15
2018-07-28T08:01:35.296Z,30.16
2018-07-28T08:02:35.293Z,30.29
2018-07-28T08:03:35.283Z,30.49
2018-07-28T08:04:35.279Z,30.84
2018-07-28T08:05:35.277Z,31.18
2018-07-28T08:06:35.383Z,31.45
2018-07-28T08:07:35.265Z,31.45
2018-07-28T08:08:35.268Z,31.76
2018-07-28T08:09:35.264Z,31.85
2018-07-28T08:10:35.260Z,31.84
2018-07-28T08:11:35.250Z,31.96
2018-07-28T08:12:35.298Z,31.87
2018-07-28T08:13:35.241Z,32.05
2018-07-28T08:14:35.245Z,31.36
2018-07-28T08:15:35.240Z,30.83
2018-07-28T08:16:35.232Z,30.26
2018-07-28T08:17:35.235Z,30.11
2018-07-28T08:18:35.241Z,29.90
2018-07-28T08:19:35.222Z,29.82
2018-07-28T08:20:35.219Z,29.77
2018-07-28T08:21:35.213Z,29.66
2018-07-28T08:22:35.212Z,29.77
2018-07-28T08:23:35.219Z,29.57
2018-07-28T08:24:35.206Z,29.45
2018-07-28T08:25:35.199Z,29.49
2018-07-28T08:26:35.197Z,29.40
2018-07-28T08:27:35.190Z,29.31
2018-07-28T08:28:35.194Z,29.08
2018-07-28T08:29:35.184Z,28.95
2018-07-28T08:30:35.183Z,28.88
2018-07-28T08:31:35.177Z,28.88
2018-07-28T08:32:35.194Z,28.82
2018-07-28T08:33:35.170Z,28.81
2018-07-28T08:34:35.159Z,28.80
2018-07-28T08:35:35.162Z,28.38
2018-07-28T08:36:35.157Z,28.16
2018-07-28T08:37:35.149Z,27.96
2018-07-28T08:38:35.144Z,27.91
2018-07-28T08:39:35.136Z,27.70
2018-07-28T08:40:35.134Z,27.76
2018-07-28T08:41:35.127Z,27.71
2018-07-28T08:42:35.127Z,27.69
2018-07-28T08:43:35.114Z,27.59
2018-07-28T08:44:35.115Z,27.58
2018-07-28T08:45:35.108Z,27.71
2018-07-28T08:46:35.108Z,27.73
2018-07-28T08:47:35.101Z,27.86
2018-07-28T08:48:35.095Z,27.84
2018-07-28T08:49:35.156Z,28.04
2018-07-28T08:50:35.084Z,28.09
2018-07-28T08:51:35.079Z,28.21
2018-07-28T08:52:35.073Z,28.44
2018-07-28T08:53:35.065Z,28.36
2018-07-28T08:54:35.120Z,28.46
2018-07-28T08:55:35.184Z,28.72
2018-07-28T08:56:35.045Z,28.85
2018-07-28T08:57:35.054Z,28.85
2018-07-28T08:58:35.039Z,29.03
2018-07-28T08:59:35.035Z,29.07
2018-07-28T09:00:35.030Z,29.10
2018-07-28T09:01:35.023Z,29.29
2018-07-28T09:02:35.013Z,29.29
2018-07-28T09:03:35.013Z,29.57
2018-07-28T09:04:35.010Z,29.45
2018-07-28T09:05:35.019Z,29.41
2018-07-28T09:06:34.997Z,29.53
2018-07-28T09:07:34.997Z,29.62
2018-07-28T09:08:34.987Z,29.63
2018-07-28T09:09:34.979Z,29.79
2018-07-28T09:10:35.038Z,29.90
2018-07-28T09:11:34.975Z,29.96
2018-07-28T09:12:34.975Z,29.99
2018-07-28T09:13:34.965Z,29.82
2018-07-28T09:14:34.965Z,29.68
2018-07-28T09:15:34.955Z,29.65
2018-07-28T09:16:35.006Z,29.44
2018-07-28T09:17:34.950Z,29.50
2018-07-28T09:18:34.946Z,29.45
2018-07-28T09:19:34.942Z,29.31
2018-07-28T09:20:34.933Z,29.16
2018-07-28T09:21:34.936Z,29.04
2018-07-28T09:22:34.961Z,29.00
2018-07-28T09:23:34.963Z,28.77
2018-07-28T09:24:34.917Z,28.62
2018-07-28T09:25:34.914Z,28.54
2018-07-28T09:26:34.908Z,28.58
2018-07-28T09:27:34.901Z,28.58
2018-07-28T09:28:34.899Z,28.56
2018-07-28T09:29:34.901Z,28.60
2018-07-28T09:30:34.905Z,28.66
2018-07-28T09:31:34.887Z,28.66
2018-07-28T09:32:34.886Z,28.65
2018-07-28T09:33:34.876Z,28.59
2018-07-28T09:34:34.870Z,28.66
2018-07-28T09:35:34.866Z,28.68
2018-07-28T09:36:34.857Z,28.62
2018-07-28T09:37:34.883Z,28.80
2018-07-28T09:38:34.851Z,28.87
2018-07-28T09:39:34.844Z,28.91
2018-07-28T09:40:34.849Z,29.00
2018-07-28T09:41:34.838Z,28.88
2018-07-28T09:42:34.828Z,28.97
2018-07-28T09:43:34.825Z,28.90
2018-07-28T09:44:34.825Z,28.90
2018-07-28T09:45:34.820Z,28.90
2018-07-28T09:46:34.810Z,28.88
2018-07-28T09:47:34.806Z,28.90
2018-07-28T09:48:34.800Z,29.04
2018-07-28T09:49:34.799Z,29.10
2018-07-28T09:50:34.799Z,29.13
2018-07-28T09:51:34.790Z,29.01
2018-07-28T09:52:34.780Z,28.93
2018-07-28T09:53:34.780Z,28.80
2018-07-28T09:54:34.778Z,28.77
2018-07-28T09:55:34.764Z,28.70
2018-07-28T09:56:34.767Z,28.54
2018-07-28T09:57:34.758Z,28.56
2018-07-28T09:58:34.751Z,28.48
2018-07-28T09:59:34.752Z,28.68
2018-07-28T10:00:34.738Z,28.53
2018-07-28T10:01:34.732Z,28.60
2018-07-28T10:02:34.758Z,28.58
2018-07-28T10:03:34.732Z,28.54
2018-07-28T10:04:34.724Z,28.80
2018-07-28T10:05:34.791Z,28.81
2018-07-28T10:06:34.719Z,28.95
2018-07-28T10:07:34.707Z,29.01
2018-07-28T10:08:34.710Z,29.19
2018-07-28T10:09:34.697Z,29.41
2018-07-28T10:10:34.692Z,29.53
2018-07-28T10:11:34.687Z,29.84
2018-07-28T10:12:34.684Z,29.84
2018-07-28T10:13:34.674Z,29.90
2018-07-28T10:14:34.674Z,29.94
2018-07-28T10:15:34.674Z,29.90
2018-07-28T10:16:34.675Z,29.84
2018-07-28T10:17:34.658Z,29.90
2018-07-28T10:18:34.661Z,29.86
2018-07-28T10:19:34.654Z,29.74
2018-07-28T10:20:34.651Z,29.71
2018-07-28T10:21:34.668Z,29.70
2018-07-28T10:22:34.668Z,29.70
2018-07-28T10:23:34.629Z,29.81
2018-07-28T10:24:34.661Z,29.74
2018-07-28T10:25:34.622Z,29.81
2018-07-28T10:26:34.649Z,29.77
2018-07-28T10:27:34.617Z,29.84
2018-07-28T10:28:34.610Z,29.84
2018-07-28T10:29:34.633Z,29.82
2018-07-28T10:30:34.610Z,29.82
2018-07-28T10:31:34.604Z,29.78
2018-07-28T10:32:34.600Z,29.60
2018-07-28T10:33:34.619Z,29.57
2018-07-28T10:34:34.583Z,29.62
2018-07-28T10:35:34.585Z,29.71
2018-07-28T10:36:34.594Z,29.71
2018-07-28T10:37:34.575Z,29.56
2018-07-28T10:38:34.582Z,29.50
2018-07-28T10:39:34.565Z,29.50
2018-07-28T10:40:34.562Z,29.62
2018-07-28T10:41:34.555Z,29.77
2018-07-28T10:42:34.552Z,29.84
2018-07-28T10:43:34.543Z,30.05
2018-07-28T10:44:34.543Z,30.15
2018-07-28T10:45:34.589Z,30.11
2018-07-28T10:46:34.531Z,30.11
2018-07-28T10:47:34.536Z,30.24
2018-07-28T10:48:34.524Z,30.34
2018-07-28T10:49:34.524Z,30.64
2018-07-28T10:50:34.517Z,30.69
2018-07-28T10:51:34.514Z,30.36
2018-07-28T10:52:34.504Z,30.36
2018-07-28T10:53:34.510Z,30.68
2018-07-28T10:54:34.513Z,30.80
2018-07-28T10:55:34.555Z,30.78
2018-07-28T10:56:34.501Z,31.05
2018-07-28T10:57:34.496Z,31.27
2018-07-28T10:58:34.497Z,31.43
2018-07-28T10:59:34.486Z,31.50
2018-07-28T11:00:34.480Z,31.40
2018-07-28T11:01:34.480Z,31.21
2018-07-28T11:02:34.474Z,31.23
2018-07-28T11:03:34.471Z,31.33
2018-07-28T11:04:34.484Z,31.38
2018-07-28T11:05:34.467Z,31.18
2018-07-28T11:06:34.467Z,31.36
2018-07-28T11:07:34.477Z,31.55
2018-07-28T11:08:34.464Z,31.64
2018-07-28T11:09:34.455Z,31.54
2018-07-28T11:10:34.464Z,31.48
2018-07-28T11:11:34.458Z,31.40
2018-07-28T11:12:34.449Z,31.67
2018-07-28T11:13:34.468Z,32.02
2018-07-28T11:14:34.477Z,32.37
2018-07-28T11:15:34.449Z,32.29
2018-07-28T11:16:34.444Z,32.06
2018-07-28T11:17:34.455Z,31.87
2018-07-28T11:18:34.474Z,32.07
2018-07-28T11:19:34.432Z,32.35
2018-07-28T11:20:34.444Z,32.02
2018-07-28T11:21:34.446Z,32.03
2018-07-28T11:22:34.492Z,31.60
2018-07-28T11:23:34.435Z,31.24
2018-07-28T11:24:34.433Z,31.09
2018-07-28T11:25:34.433Z,30.93
2018-07-28T11:26:34.440Z,30.89
2018-07-28T11:27:34.434Z,30.81
2018-07-28T11:28:34.430Z,30.83
2018-07-28T11:29:34.438Z,30.69
2018-07-28T11:30:34.432Z,30.74
2018-07-28T11:31:34.467Z,30.81
2018-07-28T11:32:34.429Z,30.81
2018-07-28T11:33:34.442Z,30.87
2018-07-28T11:34:34.417Z,30.81
2018-07-28T11:35:34.422Z,30.86
2018-07-28T11:36:34.417Z,30.90
2018-07-28T11:37:34.414Z,30.76
2018-07-28T11:38:34.407Z,30.81
2018-07-28T11:39:34.410Z,30.78
2018-07-28T11:40:34.411Z,30.67
2018-07-28T11:41:34.426Z,30.74
2018-07-28T11:42:34.401Z,30.83
2018-07-28T11:43:34.400Z,31.18
2018-07-28T11:44:34.391Z,31.85
2018-07-28T11:45:34.391Z,31.60
2018-07-28T11:46:34.391Z,32.13
2018-07-28T11:47:34.384Z,32.66
2018-07-28T11:48:34.382Z,33.27
2018-07-28T11:49:34.385Z,33.60
2018-07-28T11:50:34.383Z,34.07
2018-07-28T11:51:34.388Z,34.13
2018-07-28T11:52:34.378Z,34.00
2018-07-28T11:53:34.388Z,33.82
2018-07-28T11:54:34.396Z,34.04
2018-07-28T11:55:34.386Z,34.34
2018-07-28T11:56:34.394Z,34.64
2018-07-28T11:57:34.400Z,34.61
2018-07-28T11:58:34.392Z,34.70
2018-07-28T11:59:34.400Z,34.22
2018-07-28T12:00:34.404Z,33.41
2018-07-28T12:01:34.414Z,33.39
2018-07-28T12:02:34.410Z,33.41
2018-07-28T12:03:34.423Z,33.92
2018-07-28T12:04:34.419Z,34.20
2018-07-28T12:05:34.445Z,33.97
2018-07-28T12:06:34.430Z,33.34
2018-07-28T12:07:34.429Z,32.64
2018-07-28T12:08:34.442Z,32.77
2018-07-28T12:09:34.468Z,33.39
2018-07-28T12:10:34.442Z,33.11
2018-07-28T12:11:34.451Z,32.81
2018-07-28T12:12:34.504Z,32.67
2018-07-28T12:13:34.475Z,32.64
2018-07-28T12:14:34.455Z,33.30
2018-07-28T12:15:34.459Z,33.86
2018-07-28T12:16:34.462Z,34.38
2018-07-28T12:17:34.515Z,34.38
2018-07-28T12:18:34.513Z,34.58
2018-07-28T12:19:34.471Z,34.84
2018-07-28T12:20:34.481Z,35.13
2018-07-28T12:21:34.479Z,35.20
2018-07-28T12:22:34.612Z,35.26
2018-07-28T12:23:34.487Z,35.17
2018-07-28T12:24:34.492Z,35.33
2018-07-28T12:25:34.508Z,35.55
2018-07-28T12:26:34.515Z,35.72
2018-07-28T12:27:34.521Z,35.51
2018-07-28T12:28:34.522Z,35.45
2018-07-28T12:29:34.518Z,35.39
2018-07-28T12:30:34.521Z,35.17
2018-07-28T12:31:34.534Z,35.15
2018-07-28T12:32:34.549Z,35.10
2018-07-28T12:33:34.538Z,34.95
2018-07-28T12:34:34.560Z,34.91
2018-07-28T12:35:34.543Z,35.21
2018-07-28T12:36:34.561Z,35.42
2018-07-28T12:37:34.571Z,35.63
2018-07-28T12:38:34.579Z,35.82
2018-07-28T12:39:34.572Z,35.52
2018-07-28T12:40:34.582Z,35.18
2018-07-28T12:41:34.589Z,35.62
2018-07-28T12:42:34.598Z,35.82
2018-07-28T12:43:34.603Z,34.94
2018-07-28T12:44:34.601Z,35.06
2018-07-28T12:45:34.614Z,34.46
2018-07-28T12:46:34.620Z,33.48
2018-07-28T12:47:34.622Z,33.37
2018-07-28T12:48:34.627Z,34.09
2018-07-28T12:49:34.650Z,34.72
2018-07-28T12:50:34.639Z,35.06
2018-07-28T12:51:34.642Z,35.44
2018-07-28T12:52:34.649Z,35.10